Terminal Aerodrome Forecast
Issued by NWS

Home | Current Version | Previous Version | Text Only | Print | Product List | Glossary On
Versions: 1 2 3 4 5 6 7 8 9 10 11 12 13
618
FTUS46 KEKA 171120
TAFUKI
TAF
KUKI 171120Z 1712/1812 17004KT P6SM SKC
     FM171800 13005KT P6SM SKC
     FM172300 29010KT P6SM SKC
     FM180300 17004KT P6SM SKC=

USA.gov is the U.S. government's official web portal to all federal, state and local government web resources and services.